createdAt,value
2019-03-06T00:02:14.623Z,95.30
2019-03-06T00:04:44.027Z,95.30
2019-03-06T00:07:14.503Z,95.30
2019-03-06T00:09:52.910Z,95.30
2019-03-06T00:12:22.661Z,95.40
2019-03-06T00:14:52.064Z,95.30
2019-03-06T00:17:21.438Z,95.30
2019-03-06T00:19:50.916Z,95.30
2019-03-06T00:22:20.191Z,95.40
2019-03-06T00:24:50.127Z,95.40
2019-03-06T00:27:36.476Z,95.40
2019-03-06T00:30:06.358Z,95.40
2019-03-06T00:32:35.684Z,95.40
2019-03-06T00:35:07.167Z,95.40
2019-03-06T00:37:36.520Z,95.50
2019-03-06T00:40:12.540Z,95.40
2019-03-06T00:42:50.500Z,95.50
2019-03-06T00:45:20.167Z,95.50
2019-03-06T00:47:49.955Z,95.50
2019-03-06T00:50:19.683Z,95.50
2019-03-06T00:52:49.396Z,95.60
2019-03-06T00:55:18.945Z,95.60
2019-03-06T00:57:55.348Z,95.60
2019-03-06T01:00:25.320Z,95.60
2019-03-06T01:02:54.790Z,95.60
2019-03-06T01:05:25.110Z,95.60
2019-03-06T01:07:54.759Z,95.60
2019-03-06T01:10:30.894Z,95.60
2019-03-06T01:13:00.367Z,96.00
2019-03-06T01:15:29.834Z,95.60
2019-03-06T01:17:59.386Z,95.60
2019-03-06T01:20:31.388Z,95.70
2019-03-06T01:23:00.644Z,95.70
2019-03-06T01:25:30.036Z,95.70
2019-03-06T01:27:59.659Z,95.80
2019-03-06T01:30:29.249Z,95.70
2019-03-06T01:33:14.210Z,95.70
2019-03-06T01:36:01.987Z,95.80
2019-03-06T01:39:02.013Z,95.80
2019-03-06T01:41:56.467Z,95.80
2019-03-06T01:44:39.677Z,95.80
2019-03-06T01:47:09.528Z,95.80
2019-03-06T01:49:39.216Z,95.80
2019-03-06T01:52:08.648Z,95.90
2019-03-06T01:54:38.590Z,95.90
2019-03-06T01:57:07.948Z,95.90
2019-03-06T01:59:37.521Z,95.90
2019-03-06T02:02:07.077Z,95.90
2019-03-06T02:04:36.362Z,95.90
2019-03-06T02:07:06.118Z,96.00
2019-03-06T02:09:35.478Z,96.00
2019-03-06T02:12:06.457Z,96.00
2019-03-06T02:14:43.115Z,96.00
2019-03-06T02:17:12.525Z,96.00
2019-03-06T02:19:42.289Z,96.10
2019-03-06T02:22:11.522Z,96.00
2019-03-06T02:24:53.726Z,96.10
2019-03-06T02:27:23.782Z,96.20
2019-03-06T02:29:53.651Z,96.10
2019-03-06T02:32:22.947Z,96.10
2019-03-06T02:34:52.491Z,96.10
2019-03-06T02:37:21.785Z,96.10
2019-03-06T02:39:51.123Z,96.20
2019-03-06T02:42:20.661Z,96.20
2019-03-06T02:44:50.020Z,96.20
2019-03-06T02:47:19.533Z,96.20
2019-03-06T02:49:51.948Z,96.20
2019-03-06T02:52:21.260Z,96.20
2019-03-06T02:54:50.600Z,96.20
2019-03-06T02:57:20.056Z,96.20
2019-03-06T03:00:05.179Z,96.30
2019-03-06T03:02:46.248Z,96.30
2019-03-06T03:08:06.412Z,96.40
2019-03-06T03:10:37.206Z,96.40
2019-03-06T03:13:06.864Z,96.40
2019-03-06T03:15:36.212Z,96.40
2019-03-06T03:18:05.756Z,96.40
2019-03-06T03:20:35.381Z,96.50
2019-03-06T03:23:05.101Z,96.40
2019-03-06T03:25:34.306Z,96.40
2019-03-06T03:28:03.654Z,96.50
2019-03-06T03:30:33.104Z,96.50
2019-03-06T03:33:02.489Z,96.60
2019-03-06T03:35:31.752Z,96.50
2019-03-06T03:38:01.055Z,96.50
2019-03-06T03:40:30.477Z,96.50
2019-03-06T03:42:59.948Z,96.50
2019-03-06T03:45:29.369Z,96.40
2019-03-06T03:47:58.771Z,96.50
2019-03-06T03:50:28.274Z,96.50
2019-03-06T03:52:57.608Z,96.50
2019-03-06T03:55:26.902Z,96.60
2019-03-06T03:57:56.164Z,96.60
2019-03-06T04:00:25.526Z,96.60
2019-03-06T04:02:55.007Z,96.70
2019-03-06T04:05:24.904Z,96.70
2019-03-06T04:07:54.236Z,96.70
2019-03-06T04:10:23.660Z,96.70
2019-03-06T04:12:54.360Z,96.70
2019-03-06T04:15:27.716Z,96.70
2019-03-06T04:21:37.624Z,96.80
2019-03-06T04:24:07.074Z,96.80
2019-03-06T04:26:36.792Z,96.70
2019-03-06T04:29:06.067Z,96.80
2019-03-06T04:31:35.439Z,96.80
2019-03-06T04:34:04.824Z,96.80
2019-03-06T04:36:34.217Z,96.80
2019-03-06T04:39:04.187Z,96.80
2019-03-06T04:41:33.629Z,96.80
2019-03-06T04:44:03.190Z,96.80
2019-03-06T04:46:32.821Z,96.90
2019-03-06T04:49:02.097Z,96.90
2019-03-06T04:51:31.653Z,96.90
2019-03-06T04:54:01.178Z,96.80
2019-03-06T04:56:32.182Z,96.90
2019-03-06T04:59:02.559Z,96.90
2019-03-06T05:01:33.501Z,96.90
2019-03-06T05:04:04.193Z,96.90
2019-03-06T05:07:03.546Z,96.90
2019-03-06T05:09:34.191Z,96.90
2019-03-06T05:12:03.525Z,96.90
2019-03-06T05:14:38.072Z,96.90
2019-03-06T05:17:26.334Z,96.90
2019-03-06T05:19:55.966Z,97.00
2019-03-06T05:22:25.129Z,96.90
2019-03-06T05:24:59.181Z,97.00
2019-03-06T05:27:28.618Z,97.00
2019-03-06T05:29:57.924Z,97.00
2019-03-06T05:32:34.799Z,97.00
2019-03-06T05:35:10.882Z,97.00
2019-03-06T05:38:01.331Z,97.00
2019-03-06T05:40:30.799Z,97.00
2019-03-06T05:43:10.103Z,97.00
2019-03-06T05:45:44.325Z,97.00
2019-03-06T05:48:21.389Z,96.90
2019-03-06T05:50:50.765Z,96.90
2019-03-06T05:53:21.072Z,97.00
2019-03-06T05:55:50.499Z,97.00
2019-03-06T05:58:19.802Z,97.00
2019-03-06T06:00:49.084Z,96.90
2019-03-06T06:03:18.473Z,97.00
2019-03-06T06:05:49.005Z,97.00
2019-03-06T06:08:18.488Z,97.00
2019-03-06T06:11:00.101Z,97.10
2019-03-06T06:13:31.028Z,97.10
2019-03-06T06:16:00.577Z,97.10
2019-03-06T06:18:30.108Z,97.10
2019-03-06T06:21:33.626Z,97.10
2019-03-06T06:24:07.611Z,97.10
2019-03-06T06:26:37.575Z,97.20
2019-03-06T06:29:07.170Z,97.20
2019-03-06T06:31:36.678Z,97.20
2019-03-06T06:34:07.325Z,97.20
2019-03-06T06:36:36.948Z,97.20
2019-03-06T06:39:07.235Z,97.30
2019-03-06T06:41:37.248Z,97.20
2019-03-06T06:44:07.370Z,97.20
2019-03-06T06:46:37.029Z,97.20
2019-03-06T06:49:06.793Z,97.20
2019-03-06T06:51:51.275Z,97.30
2019-03-06T06:54:57.408Z,97.30
2019-03-06T06:58:18.510Z,97.30
2019-03-06T07:01:28.378Z,97.30
2019-03-06T07:04:38.364Z,97.20
2019-03-06T07:07:32.666Z,97.30
2019-03-06T07:13:19.073Z,97.20
2019-03-06T07:16:16.524Z,97.10
2019-03-06T07:19:10.947Z,97.00
2019-03-06T07:22:17.746Z,97.10
2019-03-06T07:25:09.933Z,97.10
2019-03-06T07:27:56.644Z,97.10
2019-03-06T07:30:43.991Z,97.00
2019-03-06T07:33:38.723Z,97.00
2019-03-06T07:36:42.340Z,97.00
2019-03-06T07:39:19.720Z,97.10
2019-03-06T07:42:17.452Z,96.90
2019-03-06T07:45:59.535Z,96.90
2019-03-06T07:49:01.599Z,96.90
2019-03-06T07:51:37.570Z,96.90
2019-03-06T07:54:23.370Z,96.90
2019-03-06T07:57:13.699Z,96.80
2019-03-06T07:59:46.140Z,96.70
2019-03-06T08:02:20.624Z,96.70
2019-03-06T08:05:04.099Z,96.60
2019-03-06T08:07:34.008Z,96.60
2019-03-06T08:10:12.095Z,96.60
2019-03-06T08:12:55.410Z,96.60
2019-03-06T08:15:41.072Z,96.50
2019-03-06T08:18:22.156Z,96.50
2019-03-06T08:21:09.923Z,96.40
2019-03-06T08:23:58.330Z,96.40
2019-03-06T08:26:27.769Z,96.30
2019-03-06T08:28:57.663Z,96.20
2019-03-06T08:31:35.798Z,96.20
2019-03-06T08:34:05.074Z,96.20
2019-03-06T08:36:35.329Z,96.20
2019-03-06T08:39:14.137Z,96.30
2019-03-06T08:41:43.476Z,96.10
2019-03-06T08:44:12.858Z,96.20
2019-03-06T08:46:54.435Z,96.10
2019-03-06T08:49:43.056Z,96.10
2019-03-06T08:52:29.422Z,96.10
2019-03-06T08:55:17.582Z,96.00
2019-03-06T08:58:26.067Z,96.00
2019-03-06T09:01:14.980Z,95.90
2019-03-06T09:04:15.165Z,95.90
2019-03-06T09:07:06.577Z,95.90
2019-03-06T09:09:44.477Z,95.80
2019-03-06T09:12:43.573Z,95.70
2019-03-06T09:15:31.093Z,95.60
2019-03-06T09:18:19.926Z,95.60
2019-03-06T09:21:05.820Z,95.60
2019-03-06T09:23:54.114Z,95.50
2019-03-06T09:26:33.287Z,95.40
2019-03-06T09:29:24.373Z,95.40
2019-03-06T09:32:15.594Z,95.30
2019-03-06T09:35:02.342Z,95.30
2019-03-06T09:38:11.088Z,95.20
2019-03-06T09:40:57.054Z,95.10
2019-03-06T09:43:32.601Z,95.10
2019-03-06T09:46:10.299Z,94.80
2019-03-06T09:49:11.742Z,94.80
2019-03-06T09:52:03.914Z,94.60
2019-03-06T09:55:00.128Z,94.60
2019-03-06T09:57:51.242Z,94.50
2019-03-06T10:00:51.385Z,94.50
2019-03-06T10:03:31.121Z,94.40
2019-03-06T10:06:17.902Z,94.20
2019-03-06T10:09:06.218Z,94.20
2019-03-06T10:11:54.478Z,93.90
2019-03-06T10:14:45.937Z,94.00
2019-03-06T10:17:30.260Z,94.00
2019-03-06T10:20:03.736Z,93.80
2019-03-06T10:22:32.889Z,94.20
2019-03-06T10:25:02.383Z,93.40
2019-03-06T10:31:11.753Z,93.10
2019-03-06T10:33:41.688Z,93.10
2019-03-06T10:36:11.314Z,93.20
2019-03-06T10:38:40.718Z,93.10
2019-03-06T10:41:10.267Z,93.00
2019-03-06T10:43:39.665Z,92.70
2019-03-06T10:46:10.707Z,92.70
2019-03-06T10:48:40.257Z,93.00
2019-03-06T10:51:09.956Z,92.60
2019-03-06T10:53:41.608Z,92.40
2019-03-06T10:56:10.720Z,92.30
2019-03-06T10:58:40.929Z,92.20
2019-03-06T11:01:10.365Z,92.10
2019-03-06T11:03:49.189Z,92.00
2019-03-06T11:06:18.893Z,91.90
2019-03-06T11:08:49.434Z,91.60
2019-03-06T11:11:18.662Z,91.70
2019-03-06T11:13:47.890Z,91.70
2019-03-06T11:16:17.891Z,91.80
2019-03-06T11:18:53.904Z,91.80
2019-03-06T11:21:23.015Z,91.70
2019-03-06T11:23:52.078Z,91.50
2019-03-06T11:26:21.139Z,91.20
2019-03-06T11:28:50.394Z,91.30
2019-03-06T11:31:19.905Z,91.30
2019-03-06T11:33:49.401Z,91.30
2019-03-06T11:36:20.387Z,91.30
2019-03-06T11:38:49.569Z,91.10
2019-03-06T11:41:18.604Z,91.10
2019-03-06T11:43:55.036Z,91.20
2019-03-06T11:46:24.010Z,91.00
2019-03-06T11:48:53.359Z,91.00
2019-03-06T11:51:22.682Z,90.90
2019-03-06T11:53:51.777Z,90.70
2019-03-06T11:56:21.173Z,90.50
2019-03-06T11:58:50.703Z,90.60
2019-03-06T12:01:23.961Z,90.70
2019-03-06T12:03:53.734Z,90.30
2019-03-06T12:06:23.174Z,90.20
2019-03-06T12:08:52.710Z,90.30
2019-03-06T12:11:21.740Z,90.30
2019-03-06T12:13:51.005Z,90.00
2019-03-06T12:16:20.566Z,90.00
2019-03-06T12:18:57.803Z,90.20
2019-03-06T12:21:26.732Z,90.00
2019-03-06T12:23:55.921Z,90.10
2019-03-06T12:26:25.101Z,90.20
2019-03-06T12:28:54.145Z,90.40
2019-03-06T12:31:23.120Z,90.20
2019-03-06T12:33:52.770Z,90.30
2019-03-06T12:36:22.126Z,90.00
2019-03-06T12:38:51.160Z,90.10
2019-03-06T12:41:21.036Z,89.60
2019-03-06T12:43:50.084Z,89.80
2019-03-06T12:46:24.333Z,90.10
2019-03-06T12:49:04.247Z,89.80
2019-03-06T12:51:34.941Z,89.90
2019-03-06T12:54:04.716Z,89.70
2019-03-06T12:56:39.880Z,89.60
2019-03-06T12:59:09.005Z,89.40
2019-03-06T13:01:39.198Z,88.70
2019-03-06T13:04:09.489Z,88.20
2019-03-06T13:06:38.589Z,88.80
2019-03-06T13:09:20.276Z,88.50
2019-03-06T13:11:49.437Z,88.80
2019-03-06T13:14:18.707Z,88.80
2019-03-06T13:16:47.998Z,89.00
2019-03-06T13:19:17.084Z,88.60
2019-03-06T13:21:46.330Z,88.60
2019-03-06T13:24:15.949Z,89.00
2019-03-06T13:27:00.100Z,88.50
2019-03-06T13:29:29.728Z,88.60
2019-03-06T13:31:58.957Z,88.90
2019-03-06T13:34:50.161Z,88.80
2019-03-06T13:37:11.512Z,89.40
2019-03-06T13:39:40.504Z,89.50
2019-03-06T13:42:09.602Z,89.40
2019-03-06T13:44:38.672Z,89.50
2019-03-06T13:47:07.711Z,89.80
2019-03-06T13:49:37.592Z,89.40
2019-03-06T13:52:06.709Z,88.80
2019-03-06T13:54:36.059Z,89.10
2019-03-06T13:57:05.486Z,88.60
2019-03-06T13:59:34.819Z,88.50
2019-03-06T14:02:03.922Z,88.50
2019-03-06T14:04:33.111Z,88.30
2019-03-06T14:07:02.224Z,88.40
2019-03-06T14:09:31.864Z,88.60
2019-03-06T14:12:09.291Z,89.10
2019-03-06T14:14:38.376Z,88.30
2019-03-06T14:17:07.878Z,88.30
2019-03-06T14:19:37.333Z,88.50
2019-03-06T14:22:06.763Z,88.40
2019-03-06T14:24:36.049Z,88.40
2019-03-06T14:27:06.682Z,88.40
2019-03-06T14:29:36.102Z,88.30
2019-03-06T14:32:15.004Z,88.40
2019-03-06T14:34:44.281Z,88.50
2019-03-06T14:37:14.809Z,88.80
2019-03-06T14:39:43.757Z,88.70
2019-03-06T14:42:13.141Z,88.70
2019-03-06T14:44:42.333Z,88.50
2019-03-06T14:47:12.937Z,88.60
2019-03-06T14:49:41.978Z,88.90
2019-03-06T14:52:11.014Z,88.60
2019-03-06T14:54:40.388Z,88.60
2019-03-06T14:57:09.804Z,88.40
2019-03-06T14:59:40.354Z,89.60
2019-03-06T15:02:10.230Z,88.90
2019-03-06T15:04:39.792Z,88.90
2019-03-06T15:07:09.322Z,89.00
2019-03-06T15:09:38.665Z,89.10
2019-03-06T15:12:08.353Z,89.10
2019-03-06T15:14:37.706Z,89.20
2019-03-06T15:17:07.806Z,89.30
2019-03-06T15:19:39.185Z,89.20
2019-03-06T15:22:08.179Z,89.20
2019-03-06T15:24:41.263Z,89.20
2019-03-06T15:27:08.234Z,89.20
2019-03-06T15:29:38.169Z,89.10
2019-03-06T15:32:08.621Z,88.90
2019-03-06T15:34:38.341Z,88.80
2019-03-06T15:37:08.030Z,89.10
2019-03-06T15:39:45.688Z,89.20
2019-03-06T15:42:09.959Z,89.20
2019-03-06T15:44:39.866Z,89.40
2019-03-06T15:47:09.656Z,89.40
2019-03-06T15:49:38.995Z,89.50
2019-03-06T15:52:12.346Z,89.80
2019-03-06T15:54:41.621Z,90.00
2019-03-06T15:57:10.793Z,90.00
2019-03-06T15:59:40.873Z,90.10
2019-03-06T16:02:10.149Z,90.10
2019-03-06T16:04:39.214Z,90.10
2019-03-06T16:07:08.639Z,90.20
2019-03-06T16:09:38.293Z,90.30
2019-03-06T16:12:12.103Z,90.30
2019-03-06T16:14:50.445Z,90.30
2019-03-06T16:17:21.226Z,90.40
2019-03-06T16:19:53.244Z,90.40
2019-03-06T16:22:25.414Z,90.40
2019-03-06T16:24:54.848Z,90.40
2019-03-06T16:27:24.756Z,90.40
2019-03-06T16:29:54.244Z,90.40
2019-03-06T16:32:23.313Z,90.50
2019-03-06T16:34:58.103Z,90.50
2019-03-06T16:37:28.279Z,90.80
2019-03-06T16:40:00.666Z,90.40
2019-03-06T16:42:29.934Z,90.40
2019-03-06T16:44:59.122Z,90.40
2019-03-06T16:47:28.246Z,90.40
2019-03-06T16:49:58.318Z,90.40
2019-03-06T16:52:28.353Z,90.40
2019-03-06T16:54:57.504Z,90.40
2019-03-06T16:57:26.620Z,90.40
2019-03-06T16:59:56.083Z,90.40
2019-03-06T17:02:25.169Z,90.40
2019-03-06T17:04:54.949Z,90.40
2019-03-06T17:07:24.367Z,90.40
2019-03-06T17:09:53.628Z,90.40
2019-03-06T17:12:22.812Z,90.40
2019-03-06T17:14:52.206Z,90.40
2019-03-06T17:17:21.657Z,90.40
2019-03-06T17:19:50.830Z,90.50
2019-03-06T17:22:20.173Z,90.50
2019-03-06T17:24:49.363Z,90.50
2019-03-06T17:27:18.515Z,90.50
2019-03-06T17:29:47.615Z,90.60
2019-03-06T17:32:17.302Z,90.60
2019-03-06T17:35:32.256Z,90.60
2019-03-06T17:38:01.752Z,90.60
2019-03-06T17:40:31.448Z,90.70
2019-03-06T17:43:00.938Z,90.70
2019-03-06T17:45:30.289Z,90.70
2019-03-06T17:48:30.957Z,90.80
2019-03-06T17:51:00.878Z,90.80
2019-03-06T17:53:35.039Z,90.90
2019-03-06T17:56:04.370Z,91.00
2019-03-06T17:58:33.440Z,91.00
2019-03-06T18:01:09.051Z,91.10
2019-03-06T18:03:50.710Z,91.20
2019-03-06T18:06:20.489Z,91.30
2019-03-06T18:08:50.117Z,91.40
2019-03-06T18:11:23.716Z,91.50
2019-03-06T18:13:53.743Z,91.50
2019-03-06T18:16:23.329Z,91.60
2019-03-06T18:19:00.952Z,91.60
2019-03-06T18:21:30.289Z,91.80
2019-03-06T18:23:59.614Z,91.80
2019-03-06T18:26:28.919Z,91.80
2019-03-06T18:29:00.368Z,91.80
2019-03-06T18:31:29.664Z,92.00
2019-03-06T18:33:59.348Z,92.00
2019-03-06T18:36:28.544Z,92.10
2019-03-06T18:38:57.959Z,92.20
2019-03-06T18:41:27.470Z,92.30
2019-03-06T18:43:56.835Z,92.30
2019-03-06T18:46:26.838Z,92.40
2019-03-06T18:48:56.353Z,92.40
2019-03-06T18:51:25.871Z,92.50
2019-03-06T18:54:33.602Z,92.50
2019-03-06T18:57:05.333Z,93.10
2019-03-06T18:59:34.557Z,93.20
2019-03-06T19:02:03.852Z,93.30
2019-03-06T19:04:32.965Z,93.30
2019-03-06T19:07:02.374Z,93.40
2019-03-06T19:09:31.556Z,93.40
2019-03-06T19:12:01.323Z,93.50
2019-03-06T19:14:30.291Z,93.50
2019-03-06T19:17:00.149Z,93.60
2019-03-06T19:19:29.437Z,93.60
2019-03-06T19:21:58.853Z,93.60
2019-03-06T19:24:27.966Z,93.70
2019-03-06T19:26:57.044Z,93.70
2019-03-06T19:29:26.186Z,93.80
2019-03-06T19:31:56.310Z,93.80
2019-03-06T19:34:25.457Z,93.90
2019-03-06T19:36:54.941Z,93.90
2019-03-06T19:39:24.065Z,93.90
2019-03-06T19:41:53.597Z,94.00
2019-03-06T19:44:22.924Z,94.00
2019-03-06T19:46:52.274Z,94.00
2019-03-06T19:49:21.233Z,94.10
2019-03-06T19:51:52.521Z,94.10
2019-03-06T19:54:22.121Z,94.10
2019-03-06T19:56:51.816Z,94.20
2019-03-06T19:59:20.870Z,94.20
2019-03-06T20:01:52.426Z,94.30
2019-03-06T20:04:21.630Z,94.30
2019-03-06T20:06:51.680Z,94.40
2019-03-06T20:09:24.840Z,94.40
2019-03-06T20:11:54.456Z,94.40
2019-03-06T20:14:23.868Z,94.50
2019-03-06T20:16:53.559Z,94.50
2019-03-06T20:19:25.682Z,94.50
2019-03-06T20:21:55.593Z,94.50
2019-03-06T20:24:24.835Z,94.50
2019-03-06T20:26:54.544Z,94.60
2019-03-06T20:29:25.159Z,94.50
2019-03-06T20:34:29.242Z,94.60
2019-03-06T20:36:58.989Z,94.60
2019-03-06T20:39:28.247Z,94.60
2019-03-06T20:41:57.496Z,94.60
2019-03-06T20:44:26.738Z,94.70
2019-03-06T20:46:55.891Z,94.70
2019-03-06T20:49:25.744Z,94.70
2019-03-06T20:51:59.247Z,94.70
2019-03-06T20:54:28.192Z,94.80
2019-03-06T20:56:59.644Z,94.80
2019-03-06T20:59:28.613Z,94.80
2019-03-06T21:01:57.712Z,94.80
2019-03-06T21:04:27.037Z,94.90
2019-03-06T21:06:56.170Z,94.90
2019-03-06T21:09:25.520Z,94.90
2019-03-06T21:11:55.160Z,94.90
2019-03-06T21:14:24.657Z,95.00
2019-03-06T21:16:54.902Z,95.00
2019-03-06T21:19:23.946Z,95.00
2019-03-06T21:21:52.932Z,95.10
2019-03-06T21:24:22.563Z,95.10
2019-03-06T21:26:56.598Z,95.10
2019-03-06T21:29:26.064Z,95.10
2019-03-06T21:31:56.212Z,95.10
2019-03-06T21:34:25.242Z,95.20
2019-03-06T21:36:54.205Z,95.20
2019-03-06T21:39:24.778Z,95.20
2019-03-06T21:41:54.808Z,95.30
2019-03-06T21:44:23.994Z,95.30
2019-03-06T21:46:53.106Z,95.30
2019-03-06T21:49:22.420Z,95.30
2019-03-06T21:51:54.877Z,95.40
2019-03-06T21:54:25.260Z,95.40
2019-03-06T21:56:54.954Z,95.40
2019-03-06T21:59:23.997Z,95.40
2019-03-06T22:01:53.135Z,95.40
2019-03-06T22:04:22.568Z,95.40
2019-03-06T22:06:53.868Z,95.40
2019-03-06T22:09:23.004Z,95.50
2019-03-06T22:11:52.261Z,95.40
2019-03-06T22:14:22.242Z,95.50
2019-03-06T22:16:52.953Z,95.50
2019-03-06T22:19:22.678Z,95.50
2019-03-06T22:21:51.910Z,95.60
2019-03-06T22:24:21.032Z,95.60
2019-03-06T22:26:50.694Z,95.60
2019-03-06T22:29:19.734Z,95.60
2019-03-06T22:31:48.765Z,95.70
2019-03-06T22:34:17.925Z,95.70
2019-03-06T22:36:46.998Z,95.70
2019-03-06T22:39:17.220Z,96.00
2019-03-06T22:41:46.292Z,95.70
2019-03-06T22:44:15.885Z,95.70
2019-03-06T22:46:44.971Z,95.80
2019-03-06T22:49:14.066Z,95.80
2019-03-06T22:51:43.251Z,95.80
2019-03-06T22:54:12.603Z,95.90
2019-03-06T22:56:41.636Z,95.90
2019-03-06T22:59:10.653Z,95.90
2019-03-06T23:01:43.192Z,95.90
2019-03-06T23:04:12.278Z,95.90
2019-03-06T23:06:41.939Z,95.90
2019-03-06T23:09:12.316Z,95.90
2019-03-06T23:11:42.032Z,95.90
2019-03-06T23:14:11.088Z,96.00
2019-03-06T23:16:40.121Z,96.00
2019-03-06T23:19:09.432Z,96.00
2019-03-06T23:21:38.536Z,96.00
2019-03-06T23:24:07.657Z,96.10
2019-03-06T23:26:42.684Z,96.10
2019-03-06T23:29:07.968Z,96.10
2019-03-06T23:31:37.563Z,96.40
2019-03-06T23:34:10.912Z,96.10
2019-03-06T23:36:40.017Z,96.20
2019-03-06T23:39:12.581Z,96.10
2019-03-06T23:41:41.746Z,96.20
2019-03-06T23:44:10.916Z,96.20
2019-03-06T23:46:40.100Z,96.20
2019-03-06T23:49:19.402Z,96.20
2019-03-06T23:51:51.412Z,96.20
2019-03-06T23:54:21.245Z,96.30
2019-03-06T23:56:50.730Z,96.30
2019-03-06T23:59:21.836Z,96.30
